sensor_id;sensor_type;location;lat;lon;timestamp;temperature;humidity
18408;DHT22;9330;52.210;21.174;2023-03-11T00:02:15;7.10;99.90
18408;DHT22;9330;52.210;21.174;2023-03-11T00:04:42;7.20;99.90
18408;DHT22;9330;52.210;21.174;2023-03-11T00:07:09;7.20;99.90
18408;DHT22;9330;52.210;21.174;2023-03-11T00:09:37;7.20;99.90
18408;DHT22;9330;52.210;21.174;2023-03-11T00:12:04;7.20;99.90
18408;DHT22;9330;52.210;21.174;2023-03-11T00:14:31;7.20;99.90
18408;DHT22;9330;52.210;21.174;2023-03-11T00:16:59;7.20;99.90
18408;DHT22;9330;52.210;21.174;2023-03-11T00:19:26;7.30;99.90
18408;DHT22;9330;52.210;21.174;2023-03-11T00:21:53;7.30;99.90
18408;DHT22;9330;52.210;21.174;2023-03-11T00:24:20;7.20;99.90
18408;DHT22;9330;52.210;21.174;2023-03-11T00:26:47;7.20;99.90
18408;DHT22;9330;52.210;21.174;2023-03-11T00:29:13;7.20;99.90
18408;DHT22;9330;52.210;21.174;2023-03-11T00:31:40;7.30;99.90
18408;DHT22;9330;52.210;21.174;2023-03-11T00:34:08;7.20;99.90
18408;DHT22;9330;52.210;21.174;2023-03-11T00:36:35;7.20;99.90
18408;DHT22;9330;52.210;21.174;2023-03-11T00:39:03;7.20;99.90
18408;DHT22;9330;52.210;21.174;2023-03-11T00:41:31;7.20;99.90
18408;DHT22;9330;52.210;21.174;2023-03-11T00:43:58;7.20;99.90
18408;DHT22;9330;52.210;21.174;2023-03-11T00:46:25;7.20;99.90
18408;DHT22;9330;52.210;21.174;2023-03-11T00:48:51;7.20;99.90
18408;DHT22;9330;52.210;21.174;2023-03-11T00:51:20;7.20;99.90
18408;DHT22;9330;52.210;21.174;2023-03-11T00:53:46;7.20;99.90
18408;DHT22;9330;52.210;21.174;2023-03-11T00:56:14;7.20;99.90
18408;DHT22;9330;52.210;21.174;2023-03-11T00:58:43;7.20;99.90
18408;DHT22;9330;52.210;21.174;2023-03-11T01:01:12;7.10;99.90
18408;DHT22;9330;52.210;21.174;2023-03-11T01:03:39;7.00;99.90
18408;DHT22;9330;52.210;21.174;2023-03-11T01:06:06;7.10;99.90
18408;DHT22;9330;52.210;21.174;2023-03-11T01:08:35;7.10;99.90
18408;DHT22;9330;52.210;21.174;2023-03-11T01:11:03;7.10;99.90
18408;DHT22;9330;52.210;21.174;2023-03-11T01:13:31;7.10;99.90
18408;DHT22;9330;52.210;21.174;2023-03-11T01:15:58;7.00;99.90
18408;DHT22;9330;52.210;21.174;2023-03-11T01:18:25;7.00;99.90
18408;DHT22;9330;52.210;21.174;2023-03-11T01:20:53;7.10;99.90
18408;DHT22;9330;52.210;21.174;2023-03-11T01:23:20;7.10;99.90
18408;DHT22;9330;52.210;21.174;2023-03-11T01:25:48;7.00;99.90
18408;DHT22;9330;52.210;21.174;2023-03-11T01:28:15;7.00;99.90
18408;DHT22;9330;52.210;21.174;2023-03-11T01:30:42;7.00;99.90
18408;DHT22;9330;52.210;21.174;2023-03-11T01:33:14;6.90;99.90
18408;DHT22;9330;52.210;21.174;2023-03-11T01:35:42;6.90;99.90
18408;DHT22;9330;52.210;21.174;2023-03-11T01:38:09;6.90;99.90
18408;DHT22;9330;52.210;21.174;2023-03-11T01:40:38;6.90;99.90
18408;DHT22;9330;52.210;21.174;2023-03-11T01:43:39;6.80;99.90
18408;DHT22;9330;52.210;21.174;2023-03-11T01:46:15;6.80;99.90
18408;DHT22;9330;52.210;21.174;2023-03-11T01:48:45;6.80;99.90
18408;DHT22;9330;52.210;21.174;2023-03-11T01:51:14;6.70;99.90
18408;DHT22;9330;52.210;21.174;2023-03-11T01:53:43;6.70;99.90
18408;DHT22;9330;52.210;21.174;2023-03-11T01:59:36;6.70;99.90
18408;DHT22;9330;52.210;21.174;2023-03-11T02:02:10;6.60;99.90
18408;DHT22;9330;52.210;21.174;2023-03-11T02:04:39;6.60;99.90
18408;DHT22;9330;52.210;21.174;2023-03-11T02:07:08;6.50;99.90
18408;DHT22;9330;52.210;21.174;2023-03-11T02:09:36;6.50;99.90
18408;DHT22;9330;52.210;21.174;2023-03-11T02:12:04;6.40;99.90
18408;DHT22;9330;52.210;21.174;2023-03-11T02:14:34;6.40;99.90
18408;DHT22;9330;52.210;21.174;2023-03-11T02:17:01;6.40;99.90
18408;DHT22;9330;52.210;21.174;2023-03-11T02:19:33;6.40;99.90
18408;DHT22;9330;52.210;21.174;2023-03-11T02:22:05;6.20;99.90
18408;DHT22;9330;52.210;21.174;2023-03-11T02:24:39;6.20;99.90
18408;DHT22;9330;52.210;21.174;2023-03-11T02:27:09;6.20;99.90
18408;DHT22;9330;52.210;21.174;2023-03-11T02:29:37;6.10;99.90
18408;DHT22;9330;52.210;21.174;2023-03-11T02:32:07;6.10;99.90
18408;DHT22;9330;52.210;21.174;2023-03-11T02:34:36;6.10;99.90
18408;DHT22;9330;52.210;21.174;2023-03-11T02:37:05;5.90;99.90
18408;DHT22;9330;52.210;21.174;2023-03-11T02:39:35;5.90;99.90
18408;DHT22;9330;52.210;21.174;2023-03-11T02:42:05;5.80;99.90
18408;DHT22;9330;52.210;21.174;2023-03-11T02:44:34;5.70;99.90
18408;DHT22;9330;52.210;21.174;2023-03-11T02:47:01;5.70;99.90
18408;DHT22;9330;52.210;21.174;2023-03-11T02:49:29;5.80;99.90
18408;DHT22;9330;52.210;21.174;2023-03-11T02:51:56;5.60;99.90
18408;DHT22;9330;52.210;21.174;2023-03-11T02:54:23;5.70;99.90
18408;DHT22;9330;52.210;21.174;2023-03-11T02:56:50;5.60;99.90
18408;DHT22;9330;52.210;21.174;2023-03-11T02:59:17;5.50;99.90
18408;DHT22;9330;52.210;21.174;2023-03-11T03:01:45;5.50;99.90
18408;DHT22;9330;52.210;21.174;2023-03-11T03:04:12;5.50;99.90
18408;DHT22;9330;52.210;21.174;2023-03-11T03:06:39;5.40;99.90
18408;DHT22;9330;52.210;21.174;2023-03-11T03:09:05;5.40;99.90
18408;DHT22;9330;52.210;21.174;2023-03-11T03:11:32;5.30;99.90
18408;DHT22;9330;52.210;21.174;2023-03-11T03:13:59;5.20;99.90
18408;DHT22;9330;52.210;21.174;2023-03-11T03:16:26;5.30;99.90
18408;DHT22;9330;52.210;21.174;2023-03-11T03:18:54;5.20;99.90
18408;DHT22;9330;52.210;21.174;2023-03-11T03:21:21;5.10;99.90
18408;DHT22;9330;52.210;21.174;2023-03-11T03:23:48;5.00;99.90
18408;DHT22;9330;52.210;21.174;2023-03-11T03:26:14;5.10;99.90
18408;DHT22;9330;52.210;21.174;2023-03-11T03:28:41;4.90;99.90
18408;DHT22;9330;52.210;21.174;2023-03-11T03:31:09;4.90;99.90
18408;DHT22;9330;52.210;21.174;2023-03-11T03:33:36;4.80;99.90
18408;DHT22;9330;52.210;21.174;2023-03-11T03:36:07;4.80;99.90
18408;DHT22;9330;52.210;21.174;2023-03-11T03:38:35;4.80;99.90
18408;DHT22;9330;52.210;21.174;2023-03-11T03:41:02;4.60;99.90
18408;DHT22;9330;52.210;21.174;2023-03-11T03:43:29;4.60;99.90
18408;DHT22;9330;52.210;21.174;2023-03-11T03:45:57;4.60;99.90
18408;DHT22;9330;52.210;21.174;2023-03-11T03:48:24;4.60;99.90
18408;DHT22;9330;52.210;21.174;2023-03-11T03:50:51;4.50;99.90
18408;DHT22;9330;52.210;21.174;2023-03-11T03:53:19;4.50;99.90
18408;DHT22;9330;52.210;21.174;2023-03-11T03:55:46;4.40;99.90
18408;DHT22;9330;52.210;21.174;2023-03-11T03:58:14;4.40;99.90
18408;DHT22;9330;52.210;21.174;2023-03-11T04:00:41;4.50;99.90
18408;DHT22;9330;52.210;21.174;2023-03-11T04:03:08;4.40;99.90
18408;DHT22;9330;52.210;21.174;2023-03-11T04:05:34;4.40;99.90
18408;DHT22;9330;52.210;21.174;2023-03-11T04:08:01;4.40;99.90
18408;DHT22;9330;52.210;21.174;2023-03-11T04:10:30;4.40;99.90
18408;DHT22;9330;52.210;21.174;2023-03-11T04:12:56;4.40;99.90
18408;DHT22;9330;52.210;21.174;2023-03-11T04:15:23;4.40;99.90
18408;DHT22;9330;52.210;21.174;2023-03-11T04:17:50;4.50;99.90
18408;DHT22;9330;52.210;21.174;2023-03-11T04:20:17;4.40;99.90
18408;DHT22;9330;52.210;21.174;2023-03-11T04:22:44;4.40;99.90
18408;DHT22;9330;52.210;21.174;2023-03-11T04:25:11;4.60;99.90
18408;DHT22;9330;52.210;21.174;2023-03-11T04:27:39;4.50;99.90
18408;DHT22;9330;52.210;21.174;2023-03-11T04:30:08;4.50;99.90
18408;DHT22;9330;52.210;21.174;2023-03-11T04:32:35;4.50;99.90
18408;DHT22;9330;52.210;21.174;2023-03-11T04:35:02;4.40;99.90
18408;DHT22;9330;52.210;21.174;2023-03-11T04:37:29;4.70;99.90
18408;DHT22;9330;52.210;21.174;2023-03-11T04:39:56;4.50;99.90
18408;DHT22;9330;52.210;21.174;2023-03-11T04:42:23;4.50;99.90
18408;DHT22;9330;52.210;21.174;2023-03-11T04:44:51;4.50;99.90
18408;DHT22;9330;52.210;21.174;2023-03-11T04:47:18;4.50;99.90
18408;DHT22;9330;52.210;21.174;2023-03-11T04:49:46;4.50;99.90
18408;DHT22;9330;52.210;21.174;2023-03-11T04:52:13;4.60;99.90
18408;DHT22;9330;52.210;21.174;2023-03-11T04:54:39;4.60;99.90
18408;DHT22;9330;52.210;21.174;2023-03-11T04:57:07;4.60;99.90
18408;DHT22;9330;52.210;21.174;2023-03-11T04:59:34;4.70;99.90
18408;DHT22;9330;52.210;21.174;2023-03-11T05:02:02;4.70;99.90
18408;DHT22;9330;52.210;21.174;2023-03-11T05:04:29;4.80;99.90
18408;DHT22;9330;52.210;21.174;2023-03-11T05:06:55;4.90;99.90
18408;DHT22;9330;52.210;21.174;2023-03-11T05:09:22;4.90;99.90
18408;DHT22;9330;52.210;21.174;2023-03-11T05:11:49;5.00;99.90
18408;DHT22;9330;52.210;21.174;2023-03-11T05:14:16;5.10;99.90
18408;DHT22;9330;52.210;21.174;2023-03-11T05:16:43;5.10;99.90
18408;DHT22;9330;52.210;21.174;2023-03-11T05:19:11;5.10;99.90
18408;DHT22;9330;52.210;21.174;2023-03-11T05:21:56;5.20;99.90
18408;DHT22;9330;52.210;21.174;2023-03-11T05:24:23;5.30;99.90
18408;DHT22;9330;52.210;21.174;2023-03-11T05:26:51;5.40;99.90
18408;DHT22;9330;52.210;21.174;2023-03-11T05:29:18;5.30;99.90
18408;DHT22;9330;52.210;21.174;2023-03-11T05:31:45;5.40;99.90
18408;DHT22;9330;52.210;21.174;2023-03-11T05:34:13;5.40;99.90
18408;DHT22;9330;52.210;21.174;2023-03-11T05:36:40;5.40;99.90
18408;DHT22;9330;52.210;21.174;2023-03-11T05:39:07;5.50;99.90
18408;DHT22;9330;52.210;21.174;2023-03-11T05:41:34;5.50;99.90
18408;DHT22;9330;52.210;21.174;2023-03-11T05:44:01;5.50;99.90
18408;DHT22;9330;52.210;21.174;2023-03-11T05:46:28;5.60;99.90
18408;DHT22;9330;52.210;21.174;2023-03-11T05:48:55;5.60;99.90
18408;DHT22;9330;52.210;21.174;2023-03-11T05:51:23;5.60;99.90
18408;DHT22;9330;52.210;21.174;2023-03-11T05:53:50;5.60;99.90
18408;DHT22;9330;52.210;21.174;2023-03-11T05:56:20;5.70;99.90
18408;DHT22;9330;52.210;21.174;2023-03-11T05:58:47;5.70;99.90
18408;DHT22;9330;52.210;21.174;2023-03-11T06:01:16;5.70;99.90
18408;DHT22;9330;52.210;21.174;2023-03-11T06:03:43;5.60;99.90
18408;DHT22;9330;52.210;21.174;2023-03-11T06:06:11;5.70;99.90
18408;DHT22;9330;52.210;21.174;2023-03-11T06:08:40;5.70;99.90
18408;DHT22;9330;52.210;21.174;2023-03-11T06:11:10;5.80;99.90
18408;DHT22;9330;52.210;21.174;2023-03-11T06:13:37;5.80;99.90
18408;DHT22;9330;52.210;21.174;2023-03-11T06:16:04;5.70;99.90
18408;DHT22;9330;52.210;21.174;2023-03-11T06:18:32;5.80;99.90
18408;DHT22;9330;52.210;21.174;2023-03-11T06:20:59;5.80;99.90
18408;DHT22;9330;52.210;21.174;2023-03-11T06:23:27;5.80;99.90
18408;DHT22;9330;52.210;21.174;2023-03-11T06:25:56;5.90;99.90
18408;DHT22;9330;52.210;21.174;2023-03-11T06:28:23;6.00;99.90
18408;DHT22;9330;52.210;21.174;2023-03-11T06:30:50;6.00;99.90
18408;DHT22;9330;52.210;21.174;2023-03-11T06:33:17;6.10;99.90
18408;DHT22;9330;52.210;21.174;2023-03-11T06:35:44;6.10;99.90
18408;DHT22;9330;52.210;21.174;2023-03-11T06:38:10;6.10;99.90
18408;DHT22;9330;52.210;21.174;2023-03-11T06:40:37;6.20;99.90
18408;DHT22;9330;52.210;21.174;2023-03-11T06:43:05;6.20;99.90
18408;DHT22;9330;52.210;21.174;2023-03-11T06:45:32;6.20;99.90
18408;DHT22;9330;52.210;21.174;2023-03-11T06:47:59;6.30;99.90
18408;DHT22;9330;52.210;21.174;2023-03-11T06:50:26;6.40;99.90
18408;DHT22;9330;52.210;21.174;2023-03-11T06:52:53;6.50;99.90
18408;DHT22;9330;52.210;21.174;2023-03-11T06:55:20;6.60;99.90
18408;DHT22;9330;52.210;21.174;2023-03-11T06:57:47;6.60;99.90
18408;DHT22;9330;52.210;21.174;2023-03-11T07:00:16;6.60;99.90
18408;DHT22;9330;52.210;21.174;2023-03-11T07:02:43;6.70;99.90
18408;DHT22;9330;52.210;21.174;2023-03-11T07:05:10;6.80;99.90
18408;DHT22;9330;52.210;21.174;2023-03-11T07:07:37;6.90;99.90
18408;DHT22;9330;52.210;21.174;2023-03-11T07:10:05;7.00;99.90
18408;DHT22;9330;52.210;21.174;2023-03-11T07:12:32;7.10;99.90
18408;DHT22;9330;52.210;21.174;2023-03-11T07:14:59;7.20;99.90
18408;DHT22;9330;52.210;21.174;2023-03-11T07:17:28;7.30;99.90
18408;DHT22;9330;52.210;21.174;2023-03-11T07:19:54;7.30;99.90
18408;DHT22;9330;52.210;21.174;2023-03-11T07:22:21;7.40;99.90
18408;DHT22;9330;52.210;21.174;2023-03-11T07:24:49;7.50;99.90
18408;DHT22;9330;52.210;21.174;2023-03-11T07:27:16;7.50;99.90
18408;DHT22;9330;52.210;21.174;2023-03-11T07:29:43;7.60;99.90
18408;DHT22;9330;52.210;21.174;2023-03-11T07:32:10;7.70;99.90
18408;DHT22;9330;52.210;21.174;2023-03-11T07:34:38;7.80;99.90
18408;DHT22;9330;52.210;21.174;2023-03-11T07:37:05;7.90;99.90
18408;DHT22;9330;52.210;21.174;2023-03-11T07:39:31;7.90;99.90
18408;DHT22;9330;52.210;21.174;2023-03-11T07:41:58;7.90;99.90
18408;DHT22;9330;52.210;21.174;2023-03-11T07:44:25;7.90;99.90
18408;DHT22;9330;52.210;21.174;2023-03-11T07:46:52;7.90;99.90
18408;DHT22;9330;52.210;21.174;2023-03-11T07:49:19;8.00;99.90
18408;DHT22;9330;52.210;21.174;2023-03-11T07:51:47;8.00;99.90
18408;DHT22;9330;52.210;21.174;2023-03-11T07:54:14;7.90;99.90
18408;DHT22;9330;52.210;21.174;2023-03-11T07:56:41;8.00;99.90
18408;DHT22;9330;52.210;21.174;2023-03-11T07:59:07;8.10;99.90
18408;DHT22;9330;52.210;21.174;2023-03-11T08:01:34;7.90;99.90
18408;DHT22;9330;52.210;21.174;2023-03-11T08:04:06;8.00;99.90
18408;DHT22;9330;52.210;21.174;2023-03-11T08:06:35;7.90;99.90
18408;DHT22;9330;52.210;21.174;2023-03-11T08:09:05;8.00;99.90
18408;DHT22;9330;52.210;21.174;2023-03-11T08:11:32;7.90;99.90
18408;DHT22;9330;52.210;21.174;2023-03-11T08:13:59;7.90;99.90
18408;DHT22;9330;52.210;21.174;2023-03-11T08:16:26;7.80;99.90
18408;DHT22;9330;52.210;21.174;2023-03-11T08:18:53;8.00;99.90
18408;DHT22;9330;52.210;21.174;2023-03-11T08:21:22;8.00;99.90
18408;DHT22;9330;52.210;21.174;2023-03-11T08:23:49;8.00;99.90
18408;DHT22;9330;52.210;21.174;2023-03-11T08:26:20;8.10;99.90
18408;DHT22;9330;52.210;21.174;2023-03-11T08:28:47;8.00;99.90
18408;DHT22;9330;52.210;21.174;2023-03-11T08:31:15;8.00;99.90
18408;DHT22;9330;52.210;21.174;2023-03-11T08:33:43;8.00;99.90
18408;DHT22;9330;52.210;21.174;2023-03-11T08:36:10;8.00;99.90
18408;DHT22;9330;52.210;21.174;2023-03-11T08:38:37;7.90;99.90
18408;DHT22;9330;52.210;21.174;2023-03-11T08:41:04;7.80;99.90
18408;DHT22;9330;52.210;21.174;2023-03-11T08:43:33;7.90;99.90
18408;DHT22;9330;52.210;21.174;2023-03-11T08:46:00;7.80;99.90
18408;DHT22;9330;52.210;21.174;2023-03-11T08:48:28;7.80;99.90
18408;DHT22;9330;52.210;21.174;2023-03-11T08:50:55;7.70;99.90
18408;DHT22;9330;52.210;21.174;2023-03-11T08:53:22;7.70;99.90
18408;DHT22;9330;52.210;21.174;2023-03-11T08:55:50;7.60;99.90
18408;DHT22;9330;52.210;21.174;2023-03-11T08:58:17;7.60;99.90
18408;DHT22;9330;52.210;21.174;2023-03-11T09:00:45;7.60;99.90
18408;DHT22;9330;52.210;21.174;2023-03-11T09:03:12;7.60;99.90
18408;DHT22;9330;52.210;21.174;2023-03-11T09:05:39;7.50;99.90
18408;DHT22;9330;52.210;21.174;2023-03-11T09:08:06;7.50;99.90
18408;DHT22;9330;52.210;21.174;2023-03-11T09:10:32;7.50;99.90
18408;DHT22;9330;52.210;21.174;2023-03-11T09:12:59;7.60;99.90
18408;DHT22;9330;52.210;21.174;2023-03-11T09:15:26;7.50;99.90
18408;DHT22;9330;52.210;21.174;2023-03-11T09:17:55;7.50;99.90
18408;DHT22;9330;52.210;21.174;2023-03-11T09:20:22;7.50;99.90
18408;DHT22;9330;52.210;21.174;2023-03-11T09:22:48;7.50;99.90
18408;DHT22;9330;52.210;21.174;2023-03-11T09:25:15;7.50;99.90
18408;DHT22;9330;52.210;21.174;2023-03-11T09:27:43;7.60;99.90
18408;DHT22;9330;52.210;21.174;2023-03-11T09:30:10;7.50;99.90
18408;DHT22;9330;52.210;21.174;2023-03-11T09:32:37;7.50;99.90
18408;DHT22;9330;52.210;21.174;2023-03-11T09:35:06;7.30;99.90
18408;DHT22;9330;52.210;21.174;2023-03-11T09:37:33;7.40;99.90
18408;DHT22;9330;52.210;21.174;2023-03-11T09:40:00;7.30;99.90
18408;DHT22;9330;52.210;21.174;2023-03-11T09:42:32;7.30;99.90
18408;DHT22;9330;52.210;21.174;2023-03-11T09:45:03;7.30;99.90
18408;DHT22;9330;52.210;21.174;2023-03-11T09:47:40;7.30;99.90
18408;DHT22;9330;52.210;21.174;2023-03-11T09:50:20;7.20;99.90
18408;DHT22;9330;52.210;21.174;2023-03-11T09:52:55;7.20;99.90
18408;DHT22;9330;52.210;21.174;2023-03-11T09:55:31;7.20;99.90
18408;DHT22;9330;52.210;21.174;2023-03-11T09:58:02;7.10;99.90
18408;DHT22;9330;52.210;21.174;2023-03-11T10:00:30;7.20;99.90
18408;DHT22;9330;52.210;21.174;2023-03-11T10:02:57;7.10;99.90
18408;DHT22;9330;52.210;21.174;2023-03-11T10:05:28;6.90;99.90
18408;DHT22;9330;52.210;21.174;2023-03-11T10:08:00;6.70;99.90
18408;DHT22;9330;52.210;21.174;2023-03-11T10:10:32;6.30;99.90
18408;DHT22;9330;52.210;21.174;2023-03-11T10:13:08;6.10;99.90
18408;DHT22;9330;52.210;21.174;2023-03-11T10:15:43;6.00;99.90
18408;DHT22;9330;52.210;21.174;2023-03-11T10:18:39;5.80;99.90
18408;DHT22;9330;52.210;21.174;2023-03-11T10:21:18;5.60;99.90
18408;DHT22;9330;52.210;21.174;2023-03-11T10:24:02;5.40;99.90
18408;DHT22;9330;52.210;21.174;2023-03-11T10:26:34;5.10;99.90
18408;DHT22;9330;52.210;21.174;2023-03-11T10:29:10;5.00;99.90
18408;DHT22;9330;52.210;21.174;2023-03-11T10:31:43;4.90;99.90
18408;DHT22;9330;52.210;21.174;2023-03-11T10:34:15;4.70;99.90
18408;DHT22;9330;52.210;21.174;2023-03-11T10:36:53;4.70;99.90
18408;DHT22;9330;52.210;21.174;2023-03-11T10:39:23;4.50;99.90
18408;DHT22;9330;52.210;21.174;2023-03-11T10:41:53;4.50;99.90
18408;DHT22;9330;52.210;21.174;2023-03-11T10:44:26;4.50;99.90
18408;DHT22;9330;52.210;21.174;2023-03-11T10:46:54;4.30;99.90
18408;DHT22;9330;52.210;21.174;2023-03-11T10:49:21;4.40;99.90
18408;DHT22;9330;52.210;21.174;2023-03-11T10:51:50;4.20;99.90
18408;DHT22;9330;52.210;21.174;2023-03-11T10:54:25;4.10;99.90
18408;DHT22;9330;52.210;21.174;2023-03-11T10:56:56;4.00;99.90
18408;DHT22;9330;52.210;21.174;2023-03-11T10:59:26;3.90;99.90
18408;DHT22;9330;52.210;21.174;2023-03-11T11:01:54;3.80;99.90
18408;DHT22;9330;52.210;21.174;2023-03-11T11:04:29;3.60;99.90
18408;DHT22;9330;52.210;21.174;2023-03-11T11:07:19;3.60;99.90
18408;DHT22;9330;52.210;21.174;2023-03-11T11:09:46;3.60;99.90
18408;DHT22;9330;52.210;21.174;2023-03-11T11:12:15;3.50;99.90
18408;DHT22;9330;52.210;21.174;2023-03-11T11:14:45;3.30;99.90
18408;DHT22;9330;52.210;21.174;2023-03-11T11:17:22;3.20;99.90
18408;DHT22;9330;52.210;21.174;2023-03-11T11:19:50;3.20;99.90
18408;DHT22;9330;52.210;21.174;2023-03-11T11:22:20;3.00;99.90
18408;DHT22;9330;52.210;21.174;2023-03-11T11:24:49;3.10;99.90
18408;DHT22;9330;52.210;21.174;2023-03-11T11:27:19;2.70;99.90
18408;DHT22;9330;52.210;21.174;2023-03-11T11:29:47;2.70;99.90
18408;DHT22;9330;52.210;21.174;2023-03-11T11:32:27;2.60;99.90
18408;DHT22;9330;52.210;21.174;2023-03-11T11:34:58;2.70;99.90
18408;DHT22;9330;52.210;21.174;2023-03-11T11:37:28;2.60;99.90
18408;DHT22;9330;52.210;21.174;2023-03-11T11:39:59;2.60;99.90
18408;DHT22;9330;52.210;21.174;2023-03-11T11:42:35;2.50;99.90
18408;DHT22;9330;52.210;21.174;2023-03-11T11:45:08;2.60;99.90
18408;DHT22;9330;52.210;21.174;2023-03-11T11:47:40;2.50;99.90
18408;DHT22;9330;52.210;21.174;2023-03-11T11:50:14;2.50;99.90
18408;DHT22;9330;52.210;21.174;2023-03-11T11:52:45;2.40;99.90
18408;DHT22;9330;52.210;21.174;2023-03-11T11:55:18;2.50;99.90
18408;DHT22;9330;52.210;21.174;2023-03-11T11:57:46;2.40;99.90
18408;DHT22;9330;52.210;21.174;2023-03-11T12:00:17;2.40;99.90
18408;DHT22;9330;52.210;21.174;2023-03-11T12:02:55;2.40;99.90
18408;DHT22;9330;52.210;21.174;2023-03-11T12:05:29;2.40;99.90
18408;DHT22;9330;52.210;21.174;2023-03-11T12:08:07;2.40;99.90
18408;DHT22;9330;52.210;21.174;2023-03-11T12:10:41;2.30;99.90
18408;DHT22;9330;52.210;21.174;2023-03-11T12:13:33;2.40;99.90
18408;DHT22;9330;52.210;21.174;2023-03-11T12:16:14;2.40;99.90
18408;DHT22;9330;52.210;21.174;2023-03-11T12:18:49;2.20;99.90
18408;DHT22;9330;52.210;21.174;2023-03-11T12:21:27;2.10;99.90
18408;DHT22;9330;52.210;21.174;2023-03-11T12:24:08;2.10;99.90
18408;DHT22;9330;52.210;21.174;2023-03-11T12:26:39;2.10;99.90
18408;DHT22;9330;52.210;21.174;2023-03-11T12:29:22;2.10;99.90
18408;DHT22;9330;52.210;21.174;2023-03-11T12:31:50;2.00;99.90
18408;DHT22;9330;52.210;21.174;2023-03-11T12:34:20;1.90;99.90
18408;DHT22;9330;52.210;21.174;2023-03-11T12:36:49;1.80;99.90
18408;DHT22;9330;52.210;21.174;2023-03-11T12:39:23;1.80;99.90
18408;DHT22;9330;52.210;21.174;2023-03-11T12:42:15;1.90;99.90
18408;DHT22;9330;52.210;21.174;2023-03-11T12:44:42;1.90;99.90
18408;DHT22;9330;52.210;21.174;2023-03-11T12:47:23;1.90;99.90
18408;DHT22;9330;52.210;21.174;2023-03-11T12:49:51;1.80;99.90
18408;DHT22;9330;52.210;21.174;2023-03-11T12:52:29;1.60;99.90
18408;DHT22;9330;52.210;21.174;2023-03-11T12:58:26;1.50;99.90
18408;DHT22;9330;52.210;21.174;2023-03-11T13:01:09;1.70;99.90
18408;DHT22;9330;52.210;21.174;2023-03-11T13:03:43;1.30;99.90
18408;DHT22;9330;52.210;21.174;2023-03-11T13:06:28;1.30;99.90
18408;DHT22;9330;52.210;21.174;2023-03-11T13:08:58;1.30;99.90
18408;DHT22;9330;52.210;21.174;2023-03-11T13:11:33;1.30;99.90
18408;DHT22;9330;52.210;21.174;2023-03-11T13:14:30;1.30;99.90
18408;DHT22;9330;52.210;21.174;2023-03-11T13:17:19;1.30;99.90
18408;DHT22;9330;52.210;21.174;2023-03-11T13:19:51;1.20;99.90
18408;DHT22;9330;52.210;21.174;2023-03-11T13:25:27;1.20;99.90
18408;DHT22;9330;52.210;21.174;2023-03-11T13:28:00;1.20;99.90
18408;DHT22;9330;52.210;21.174;2023-03-11T13:30:33;1.10;99.90
18408;DHT22;9330;52.210;21.174;2023-03-11T13:33:15;1.10;99.90
18408;DHT22;9330;52.210;21.174;2023-03-11T13:36:10;1.20;99.90
18408;DHT22;9330;52.210;21.174;2023-03-11T13:41:29;1.10;99.90
18408;DHT22;9330;52.210;21.174;2023-03-11T13:43:59;1.20;99.90
18408;DHT22;9330;52.210;21.174;2023-03-11T13:46:34;1.20;99.90
18408;DHT22;9330;52.210;21.174;2023-03-11T13:49:06;1.10;99.90
18408;DHT22;9330;52.210;21.174;2023-03-11T13:51:38;1.10;99.90
18408;DHT22;9330;52.210;21.174;2023-03-11T13:54:20;1.10;99.90
18408;DHT22;9330;52.210;21.174;2023-03-11T13:56:52;1.00;99.90
18408;DHT22;9330;52.210;21.174;2023-03-11T13:59:23;1.00;99.90
18408;DHT22;9330;52.210;21.174;2023-03-11T14:01:53;0.90;99.90
18408;DHT22;9330;52.210;21.174;2023-03-11T14:04:26;0.80;99.90
18408;DHT22;9330;52.210;21.174;2023-03-11T14:06:53;0.90;99.90
18408;DHT22;9330;52.210;21.174;2023-03-11T14:09:25;0.70;99.90
18408;DHT22;9330;52.210;21.174;2023-03-11T14:11:53;0.70;99.90
18408;DHT22;9330;52.210;21.174;2023-03-11T14:14:32;0.70;99.90
18408;DHT22;9330;52.210;21.174;2023-03-11T14:17:03;0.70;99.90
18408;DHT22;9330;52.210;21.174;2023-03-11T14:19:32;0.70;99.90
18408;DHT22;9330;52.210;21.174;2023-03-11T14:21:59;1.00;99.90
18408;DHT22;9330;52.210;21.174;2023-03-11T14:24:28;0.60;99.90
18408;DHT22;9330;52.210;21.174;2023-03-11T14:26:57;0.70;99.90
18408;DHT22;9330;52.210;21.174;2023-03-11T14:29:29;0.70;99.90
18408;DHT22;9330;52.210;21.174;2023-03-11T14:31:58;0.70;99.90
18408;DHT22;9330;52.210;21.174;2023-03-11T14:34:27;0.70;99.90
18408;DHT22;9330;52.210;21.174;2023-03-11T14:36:56;0.70;99.90
18408;DHT22;9330;52.210;21.174;2023-03-11T14:39:29;0.70;99.90
18408;DHT22;9330;52.210;21.174;2023-03-11T14:42:01;0.70;99.90
18408;DHT22;9330;52.210;21.174;2023-03-11T14:44:31;0.70;99.90
18408;DHT22;9330;52.210;21.174;2023-03-11T14:47:05;0.70;99.90
18408;DHT22;9330;52.210;21.174;2023-03-11T14:49:36;0.70;99.90
18408;DHT22;9330;52.210;21.174;2023-03-11T14:52:07;0.80;99.90
18408;DHT22;9330;52.210;21.174;2023-03-11T14:54:37;0.80;99.90
18408;DHT22;9330;52.210;21.174;2023-03-11T14:57:14;0.90;99.90
18408;DHT22;9330;52.210;21.174;2023-03-11T14:59:45;0.80;99.90
18408;DHT22;9330;52.210;21.174;2023-03-11T15:02:36;0.80;99.90
18408;DHT22;9330;52.210;21.174;2023-03-11T15:05:10;0.90;99.90
18408;DHT22;9330;52.210;21.174;2023-03-11T15:07:41;0.90;99.90
18408;DHT22;9330;52.210;21.174;2023-03-11T15:10:10;0.90;99.90
18408;DHT22;9330;52.210;21.174;2023-03-11T15:12:40;0.90;99.90
18408;DHT22;9330;52.210;21.174;2023-03-11T15:15:22;1.00;99.90
18408;DHT22;9330;52.210;21.174;2023-03-11T15:17:54;1.00;99.90
18408;DHT22;9330;52.210;21.174;2023-03-11T15:20:26;1.10;99.90
18408;DHT22;9330;52.210;21.174;2023-03-11T15:22:55;1.00;99.90
18408;DHT22;9330;52.210;21.174;2023-03-11T15:25:26;1.00;99.90
18408;DHT22;9330;52.210;21.174;2023-03-11T15:27:53;1.00;99.90
18408;DHT22;9330;52.210;21.174;2023-03-11T15:30:22;1.00;99.90
18408;DHT22;9330;52.210;21.174;2023-03-11T15:32:49;1.10;99.90
18408;DHT22;9330;52.210;21.174;2023-03-11T15:35:18;1.10;99.90
18408;DHT22;9330;52.210;21.174;2023-03-11T15:37:48;1.10;99.90
18408;DHT22;9330;52.210;21.174;2023-03-11T15:40:21;1.10;99.90
18408;DHT22;9330;52.210;21.174;2023-03-11T15:42:49;1.10;99.90
18408;DHT22;9330;52.210;21.174;2023-03-11T15:45:29;1.10;99.90
18408;DHT22;9330;52.210;21.174;2023-03-11T15:47:56;1.10;99.90
18408;DHT22;9330;52.210;21.174;2023-03-11T15:50:24;1.10;99.90
18408;DHT22;9330;52.210;21.174;2023-03-11T15:52:55;1.10;99.90
18408;DHT22;9330;52.210;21.174;2023-03-11T15:55:23;1.10;99.90
18408;DHT22;9330;52.210;21.174;2023-03-11T15:57:54;1.10;99.90
18408;DHT22;9330;52.210;21.174;2023-03-11T16:00:23;1.10;99.90
18408;DHT22;9330;52.210;21.174;2023-03-11T16:02:50;1.20;99.90
18408;DHT22;9330;52.210;21.174;2023-03-11T16:05:20;1.30;99.90
18408;DHT22;9330;52.210;21.174;2023-03-11T16:07:47;1.20;99.90
18408;DHT22;9330;52.210;21.174;2023-03-11T16:10:18;1.20;99.90
18408;DHT22;9330;52.210;21.174;2023-03-11T16:12:45;1.20;99.90
18408;DHT22;9330;52.210;21.174;2023-03-11T16:15:18;1.20;99.90